createdAt,value
2017-09-15T00:01:20.696Z,11.00
2017-09-15T00:03:50.369Z,11.00
2017-09-15T00:06:20.300Z,11.00
2017-09-15T00:08:50.717Z,11.00
2017-09-15T00:11:21.178Z,11.00
2017-09-15T00:13:50.837Z,11.00
2017-09-15T00:16:20.557Z,11.00
2017-09-15T00:18:50.983Z,11.10
2017-09-15T00:21:20.652Z,11.00
2017-09-15T00:23:50.353Z,11.10
2017-09-15T00:26:20.001Z,11.10
2017-09-15T00:28:49.686Z,11.10
2017-09-15T00:31:19.351Z,11.10
2017-09-15T00:33:49.822Z,11.10
2017-09-15T00:36:19.481Z,11.10
2017-09-15T00:38:49.758Z,11.20
2017-09-15T00:41:19.418Z,11.10
2017-09-15T00:43:49.914Z,11.10
2017-09-15T00:46:20.343Z,11.10
2017-09-15T00:48:50.459Z,11.10
2017-09-15T00:51:19.391Z,11.10
2017-09-15T00:53:49.292Z,11.20
2017-09-15T00:56:19.723Z,11.20
2017-09-15T00:58:50.154Z,11.20
2017-09-15T01:01:20.594Z,11.20
2017-09-15T01:03:50.048Z,11.20
2017-09-15T01:06:19.397Z,11.20
2017-09-15T01:08:48.702Z,11.30
2017-09-15T01:11:18.159Z,11.30
2017-09-15T01:13:47.658Z,11.30
2017-09-15T01:16:17.306Z,11.30
2017-09-15T01:18:47.749Z,11.40
2017-09-15T01:21:17.433Z,11.40
2017-09-15T01:23:47.163Z,11.40
2017-09-15T01:26:17.581Z,11.40
2017-09-15T01:28:48.050Z,11.40
2017-09-15T01:31:17.730Z,11.40
2017-09-15T01:33:48.179Z,11.40
2017-09-15T01:36:17.862Z,11.40
2017-09-15T01:38:48.306Z,11.40
2017-09-15T01:41:17.977Z,11.40
2017-09-15T01:43:48.445Z,11.40
2017-09-15T01:46:18.685Z,11.50
2017-09-15T01:48:49.074Z,11.50
2017-09-15T01:51:19.540Z,11.50
2017-09-15T01:53:49.361Z,11.50
2017-09-15T01:56:19.047Z,11.50
2017-09-15T01:58:48.722Z,11.50
2017-09-15T02:01:18.415Z,11.60
2017-09-15T02:03:48.103Z,11.60
2017-09-15T02:06:17.575Z,11.60
2017-09-15T02:08:47.324Z,11.60
2017-09-15T02:11:16.668Z,11.70
2017-09-15T02:13:47.178Z,11.70
2017-09-15T02:16:17.871Z,11.70
2017-09-15T02:18:47.598Z,11.70
2017-09-15T02:21:17.272Z,11.80
2017-09-15T02:23:46.975Z,11.80
2017-09-15T02:26:16.690Z,11.80
2017-09-15T02:28:46.370Z,11.90
2017-09-15T02:31:16.833Z,11.90
2017-09-15T02:33:46.534Z,11.90
2017-09-15T02:36:16.251Z,11.90
2017-09-15T02:38:45.972Z,12.00
2017-09-15T02:41:23.245Z,12.00
2017-09-15T02:43:52.924Z,12.00
2017-09-15T02:46:23.363Z,12.10
2017-09-15T02:48:53.052Z,12.10
2017-09-15T02:51:22.718Z,12.10
2017-09-15T02:53:52.399Z,12.20
2017-09-15T02:56:22.836Z,12.20
2017-09-15T02:58:52.532Z,12.20
2017-09-15T03:01:22.973Z,12.30
2017-09-15T03:03:52.670Z,12.20
2017-09-15T03:06:23.108Z,12.30
2017-09-15T03:08:52.789Z,12.20
2017-09-15T03:11:22.302Z,12.30
2017-09-15T03:13:52.567Z,12.30
2017-09-15T03:16:22.769Z,12.20
2017-09-15T03:18:53.221Z,12.30
2017-09-15T03:21:23.570Z,12.30
2017-09-15T03:23:53.249Z,12.30
2017-09-15T03:26:22.927Z,12.30
2017-09-15T03:28:53.034Z,12.30
2017-09-15T03:31:22.715Z,12.30
2017-09-15T03:33:52.392Z,12.30
2017-09-15T03:36:22.069Z,12.30
2017-09-15T03:38:52.511Z,12.30
2017-09-15T03:41:22.948Z,12.30
2017-09-15T03:43:52.416Z,12.30
2017-09-15T03:46:21.933Z,12.30
2017-09-15T03:48:51.602Z,12.30
2017-09-15T03:51:20.945Z,12.20
2017-09-15T03:53:51.397Z,12.20
2017-09-15T03:56:21.094Z,12.20
2017-09-15T03:58:51.543Z,12.30
2017-09-15T04:01:21.223Z,12.30
2017-09-15T04:03:51.661Z,12.30
2017-09-15T04:06:22.109Z,12.20
2017-09-15T04:08:51.378Z,12.20
2017-09-15T04:11:21.840Z,12.30
2017-09-15T04:13:51.530Z,12.30
2017-09-15T04:16:21.238Z,12.30
2017-09-15T04:18:51.656Z,12.40
2017-09-15T04:21:22.094Z,12.40
2017-09-15T04:23:52.519Z,12.50
2017-09-15T04:26:23.000Z,12.50
2017-09-15T04:28:52.694Z,12.50
2017-09-15T04:31:22.369Z,12.50
2017-09-15T04:33:52.834Z,12.60
2017-09-15T04:36:22.509Z,12.60
2017-09-15T04:38:52.963Z,12.60
2017-09-15T04:41:22.638Z,12.60
2017-09-15T04:43:53.066Z,12.60
2017-09-15T04:46:23.533Z,12.60
2017-09-15T04:48:53.191Z,12.60
2017-09-15T04:51:23.653Z,12.60
2017-09-15T04:53:53.343Z,12.60
2017-09-15T04:56:23.766Z,12.50
2017-09-15T04:58:54.316Z,12.50
2017-09-15T05:01:23.966Z,12.50
2017-09-15T05:03:53.655Z,12.40
2017-09-15T05:06:23.334Z,12.50
2017-09-15T05:08:52.827Z,12.50
2017-09-15T05:11:23.285Z,12.60
2017-09-15T05:13:52.953Z,12.50
2017-09-15T05:16:22.624Z,12.60
2017-09-15T05:18:52.318Z,12.60
2017-09-15T05:21:21.993Z,12.70
2017-09-15T05:23:51.714Z,12.70
2017-09-15T05:26:21.396Z,12.70
2017-09-15T05:28:51.084Z,12.70
2017-09-15T05:31:20.775Z,12.70
2017-09-15T05:33:50.491Z,12.70
2017-09-15T05:36:20.397Z,12.70
2017-09-15T05:38:50.173Z,12.70
2017-09-15T05:41:20.452Z,12.80
2017-09-15T05:43:50.125Z,12.80
2017-09-15T05:46:19.804Z,12.80
2017-09-15T05:48:49.534Z,12.80
2017-09-15T05:51:20.109Z,12.80
2017-09-15T05:53:49.805Z,12.80
2017-09-15T05:56:19.486Z,12.80
2017-09-15T05:58:49.979Z,12.80
2017-09-15T06:01:19.639Z,12.80
2017-09-15T06:03:49.352Z,13.00
2017-09-15T06:06:19.900Z,13.00
2017-09-15T06:08:49.580Z,13.00
2017-09-15T06:11:19.997Z,13.00
2017-09-15T06:13:50.281Z,13.10
2017-09-15T06:16:20.064Z,13.00
2017-09-15T06:18:49.528Z,13.00
2017-09-15T06:21:19.972Z,13.10
2017-09-15T06:23:50.408Z,13.20
2017-09-15T06:26:20.110Z,13.20
2017-09-15T06:28:50.557Z,13.10
2017-09-15T06:31:20.020Z,13.10
2017-09-15T06:33:50.485Z,13.10
2017-09-15T06:36:20.148Z,13.10
2017-09-15T06:38:49.828Z,13.10
2017-09-15T06:41:19.512Z,13.10
2017-09-15T06:43:49.212Z,13.10
2017-09-15T06:46:18.916Z,13.20
2017-09-15T06:48:49.370Z,13.40
2017-09-15T06:51:19.050Z,13.30
2017-09-15T06:53:49.465Z,13.30
2017-09-15T06:56:19.925Z,13.40
2017-09-15T06:58:49.442Z,13.40
2017-09-15T07:01:19.156Z,13.30
2017-09-15T07:03:48.670Z,13.40
2017-09-15T07:06:18.399Z,13.60
2017-09-15T07:08:48.074Z,13.70
2017-09-15T07:11:17.774Z,13.70
2017-09-15T07:13:47.460Z,13.80
2017-09-15T07:16:17.912Z,14.20
2017-09-15T07:18:47.583Z,14.20
2017-09-15T07:21:18.098Z,14.80
2017-09-15T07:23:47.796Z,14.80
2017-09-15T07:26:17.499Z,14.90
2017-09-15T07:28:47.194Z,14.80
2017-09-15T07:31:16.882Z,15.10
2017-09-15T07:33:46.373Z,15.20
2017-09-15T07:36:16.863Z,15.70
2017-09-15T07:38:46.525Z,15.70
2017-09-15T07:41:16.219Z,15.60
2017-09-15T07:43:46.697Z,15.70
2017-09-15T07:46:16.361Z,15.60
2017-09-15T07:48:46.087Z,15.40
2017-09-15T07:51:15.780Z,15.30
2017-09-15T07:53:46.048Z,15.60
2017-09-15T07:56:15.710Z,15.60
2017-09-15T07:58:46.156Z,15.90
2017-09-15T08:01:15.827Z,15.90
2017-09-15T08:03:46.153Z,15.40
2017-09-15T08:06:15.824Z,15.40
2017-09-15T08:08:45.505Z,15.20
2017-09-15T08:11:14.849Z,15.40
2017-09-15T08:13:44.337Z,15.50
2017-09-15T08:16:14.012Z,15.50
2017-09-15T08:18:43.605Z,15.60
2017-09-15T08:21:13.267Z,16.00
2017-09-15T08:23:42.977Z,16.30
2017-09-15T08:26:12.411Z,16.40
2017-09-15T08:28:42.585Z,16.80
2017-09-15T08:31:11.991Z,16.80
2017-09-15T08:33:41.393Z,16.70
2017-09-15T08:36:10.605Z,16.90
2017-09-15T08:38:40.055Z,17.30
2017-09-15T08:41:09.443Z,17.10
2017-09-15T08:43:39.291Z,16.70
2017-09-15T08:46:08.723Z,16.70
2017-09-15T08:48:38.129Z,16.50
2017-09-15T08:51:07.534Z,16.70
2017-09-15T08:53:36.958Z,16.60
2017-09-15T08:56:07.125Z,16.40
2017-09-15T08:58:36.366Z,16.40
2017-09-15T09:01:06.541Z,17.40
2017-09-15T09:03:35.951Z,17.40
2017-09-15T09:06:05.345Z,17.90
2017-09-15T09:08:34.790Z,18.50
2017-09-15T09:11:03.995Z,18.10
2017-09-15T09:13:33.396Z,17.80
2017-09-15T09:16:02.631Z,17.40
2017-09-15T09:18:32.826Z,16.70
2017-09-15T09:21:02.232Z,16.70
2017-09-15T09:23:31.660Z,17.00
2017-09-15T09:26:01.114Z,17.20
2017-09-15T09:28:30.329Z,17.50
2017-09-15T09:30:59.737Z,17.60
2017-09-15T09:33:29.890Z,18.20
2017-09-15T09:35:59.365Z,18.20
2017-09-15T09:38:28.753Z,18.40
2017-09-15T09:40:58.155Z,18.90
2017-09-15T09:43:27.543Z,19.10
2017-09-15T09:45:56.963Z,19.40
2017-09-15T09:48:26.352Z,19.90
2017-09-15T09:50:55.779Z,20.00
2017-09-15T09:53:25.937Z,19.50
2017-09-15T09:55:55.354Z,19.50
2017-09-15T09:58:24.764Z,19.60
2017-09-15T10:00:54.156Z,19.50
2017-09-15T10:03:23.544Z,19.70
2017-09-15T10:05:52.953Z,20.30
2017-09-15T10:08:22.339Z,20.90
2017-09-15T10:10:53.396Z,21.00
2017-09-15T10:13:22.802Z,20.90
2017-09-15T10:15:52.024Z,21.10
2017-09-15T10:18:21.438Z,21.20
2017-09-15T10:20:50.854Z,21.10
2017-09-15T10:23:20.242Z,21.10
2017-09-15T10:25:49.661Z,20.70
2017-09-15T10:28:19.200Z,20.60
2017-09-15T10:30:49.405Z,20.30
2017-09-15T10:33:19.553Z,21.00
2017-09-15T10:35:48.982Z,21.00
2017-09-15T10:38:18.367Z,21.30
2017-09-15T10:40:47.783Z,21.40
2017-09-15T10:43:16.822Z,21.80
2017-09-15T10:45:46.248Z,21.80
2017-09-15T10:48:16.207Z,20.50
2017-09-15T10:50:45.622Z,20.50
2017-09-15T10:53:15.033Z,20.50
2017-09-15T10:55:44.423Z,19.90
2017-09-15T10:58:19.360Z,19.00
2017-09-15T11:00:48.753Z,18.90
2017-09-15T11:03:18.179Z,18.90
2017-09-15T11:05:47.584Z,18.70
2017-09-15T11:08:17.013Z,19.30
2017-09-15T11:10:47.148Z,20.40
2017-09-15T11:13:16.576Z,20.40
2017-09-15T11:15:45.988Z,19.80
2017-09-15T11:18:15.407Z,18.80
2017-09-15T11:20:44.808Z,18.10
2017-09-15T11:23:14.005Z,17.90
2017-09-15T11:25:43.210Z,17.80
2017-09-15T11:28:12.639Z,17.70
2017-09-15T11:30:42.048Z,17.70
2017-09-15T11:33:11.454Z,17.70
2017-09-15T11:35:41.655Z,17.80
2017-09-15T11:38:11.095Z,17.80
2017-09-15T11:40:40.910Z,18.00
2017-09-15T11:43:11.106Z,18.40
2017-09-15T11:45:40.509Z,18.30
2017-09-15T11:48:09.933Z,18.40
2017-09-15T11:50:40.131Z,18.30
2017-09-15T11:53:09.549Z,18.20
2017-09-15T11:55:39.787Z,17.90
2017-09-15T11:58:09.957Z,17.90
2017-09-15T12:00:38.662Z,17.90
2017-09-15T12:03:08.069Z,18.00
2017-09-15T12:05:37.474Z,18.10
2017-09-15T12:08:06.897Z,18.70
2017-09-15T12:10:36.289Z,18.80
2017-09-15T12:13:05.683Z,18.60
2017-09-15T12:15:35.137Z,18.40
2017-09-15T12:18:04.539Z,18.20
2017-09-15T12:20:33.951Z,19.40
2017-09-15T12:23:03.389Z,20.70
2017-09-15T12:25:32.770Z,21.10
2017-09-15T12:28:02.200Z,21.10
2017-09-15T12:30:31.247Z,21.60
2017-09-15T12:33:00.660Z,22.70
2017-09-15T12:35:30.071Z,23.90
2017-09-15T12:37:59.500Z,23.70
2017-09-15T12:40:28.887Z,22.60
2017-09-15T12:42:58.303Z,22.80
2017-09-15T12:45:27.686Z,23.30
2017-09-15T12:47:57.097Z,23.80
2017-09-15T12:50:26.496Z,23.70
2017-09-15T12:52:55.563Z,22.20
2017-09-15T12:55:24.994Z,21.40
2017-09-15T12:57:54.410Z,20.90
2017-09-15T13:00:23.850Z,20.50
2017-09-15T13:02:53.306Z,20.10
2017-09-15T13:05:22.528Z,19.40
2017-09-15T13:07:51.951Z,19.00
2017-09-15T13:10:22.129Z,18.60
2017-09-15T13:12:52.111Z,18.60
2017-09-15T13:15:21.343Z,18.40
2017-09-15T13:17:50.747Z,18.30
2017-09-15T13:20:19.978Z,18.30
2017-09-15T13:22:49.229Z,18.70
2017-09-15T13:25:18.647Z,20.60
2017-09-15T13:27:54.143Z,22.90
2017-09-15T13:30:23.560Z,23.40
2017-09-15T13:32:53.000Z,24.40
2017-09-15T13:35:22.415Z,25.60
2017-09-15T13:37:51.815Z,24.70
2017-09-15T13:40:21.238Z,23.20
2017-09-15T13:42:51.246Z,20.80
2017-09-15T13:45:20.629Z,20.80
2017-09-15T13:47:50.057Z,20.20
2017-09-15T13:50:20.232Z,19.40
2017-09-15T13:52:49.634Z,19.40
2017-09-15T13:55:19.911Z,19.00
2017-09-15T13:57:49.309Z,19.00
2017-09-15T14:00:18.735Z,19.00
2017-09-15T14:02:48.900Z,20.50
2017-09-15T14:05:18.325Z,20.50
2017-09-15T14:07:47.727Z,20.10
2017-09-15T14:10:17.151Z,19.60
2017-09-15T14:12:46.542Z,19.30
2017-09-15T14:15:15.949Z,19.00
2017-09-15T14:17:45.360Z,18.70
2017-09-15T14:20:14.778Z,18.30
2017-09-15T14:22:44.953Z,18.00
2017-09-15T14:25:14.349Z,17.90
2017-09-15T14:27:43.750Z,17.90
2017-09-15T14:30:13.171Z,17.70
2017-09-15T14:32:42.581Z,17.50
2017-09-15T14:35:11.994Z,17.40
2017-09-15T14:37:41.401Z,17.30
2017-09-15T14:40:10.817Z,17.20
2017-09-15T14:42:41.028Z,16.80
2017-09-15T14:45:10.417Z,16.70
2017-09-15T14:47:39.614Z,16.60
2017-09-15T14:50:09.046Z,16.40
2017-09-15T14:52:39.229Z,16.30
2017-09-15T14:55:08.649Z,16.20
2017-09-15T14:57:38.341Z,16.00
2017-09-15T15:00:08.792Z,15.90
2017-09-15T15:02:38.440Z,15.90
2017-09-15T15:05:07.859Z,16.10
2017-09-15T15:07:38.307Z,16.10
2017-09-15T15:10:08.774Z,15.80
2017-09-15T15:12:38.456Z,15.80
2017-09-15T15:15:08.146Z,15.70
2017-09-15T15:17:38.590Z,15.70
2017-09-15T15:20:08.314Z,15.70
2017-09-15T15:22:37.790Z,15.50
2017-09-15T15:25:08.232Z,15.50
2017-09-15T15:27:37.906Z,15.50
2017-09-15T15:30:07.413Z,15.50
2017-09-15T15:32:37.500Z,15.50
2017-09-15T15:35:07.189Z,15.40
2017-09-15T15:37:36.857Z,15.30
2017-09-15T15:40:06.338Z,15.40
2017-09-15T15:42:35.994Z,15.40
2017-09-15T15:45:07.126Z,15.40
2017-09-15T15:47:37.551Z,15.50
2017-09-15T15:50:07.811Z,15.60
2017-09-15T15:52:37.317Z,15.50
2017-09-15T15:55:07.003Z,15.60
2017-09-15T15:57:36.657Z,15.60
2017-09-15T16:00:06.342Z,15.70
2017-09-15T16:02:35.827Z,15.70
2017-09-15T16:05:05.519Z,15.80
2017-09-15T16:07:35.778Z,15.70
2017-09-15T16:10:05.474Z,15.70
2017-09-15T16:12:35.397Z,15.60
2017-09-15T16:15:05.079Z,15.70
2017-09-15T16:17:35.314Z,15.60
2017-09-15T16:20:05.008Z,15.60
2017-09-15T16:22:34.664Z,15.60
2017-09-15T16:25:04.341Z,15.60
2017-09-15T16:27:34.581Z,15.70
2017-09-15T16:30:04.083Z,15.70
2017-09-15T16:32:33.211Z,15.60
2017-09-15T16:35:02.760Z,15.60
2017-09-15T16:37:32.514Z,15.60
2017-09-15T16:40:07.756Z,15.60
2017-09-15T16:42:42.870Z,15.50
2017-09-15T16:45:19.055Z,15.50
2017-09-15T16:47:54.359Z,15.50
2017-09-15T16:50:24.824Z,15.40
2017-09-15T16:52:54.337Z,15.40
2017-09-15T16:55:24.044Z,15.40
2017-09-15T16:57:53.699Z,15.30
2017-09-15T17:00:23.386Z,15.30
2017-09-15T17:02:54.401Z,15.20
2017-09-15T17:05:23.915Z,15.20
2017-09-15T17:07:53.384Z,15.20
2017-09-15T17:10:22.910Z,15.10
2017-09-15T17:12:52.583Z,15.10
2017-09-15T17:15:23.093Z,15.00
2017-09-15T17:17:52.753Z,14.90
2017-09-15T17:20:23.298Z,15.00
2017-09-15T17:22:53.148Z,15.00
2017-09-15T17:25:22.700Z,14.90
2017-09-15T17:27:52.366Z,14.80
2017-09-15T17:30:22.812Z,14.60
2017-09-15T17:32:54.534Z,14.60
2017-09-15T17:35:24.239Z,14.60
2017-09-15T17:37:54.092Z,14.70
2017-09-15T17:40:24.547Z,14.70
2017-09-15T17:42:54.234Z,14.70
2017-09-15T17:45:23.909Z,14.70
2017-09-15T17:47:53.884Z,14.70
2017-09-15T17:50:23.582Z,14.60
2017-09-15T17:52:53.777Z,14.60
2017-09-15T17:55:23.444Z,14.50
2017-09-15T17:57:53.895Z,14.40
2017-09-15T18:00:23.555Z,14.40
2017-09-15T18:02:53.243Z,14.40
2017-09-15T18:05:24.674Z,14.40
2017-09-15T18:07:54.451Z,14.40
2017-09-15T18:10:24.923Z,14.30
2017-09-15T18:12:54.628Z,14.20
2017-09-15T18:15:24.298Z,14.20
2017-09-15T18:17:54.745Z,14.20
2017-09-15T18:20:25.196Z,14.20
2017-09-15T18:22:55.136Z,14.20
2017-09-15T18:25:24.812Z,14.10
2017-09-15T18:27:54.307Z,14.10
2017-09-15T18:30:23.790Z,14.00
2017-09-15T18:32:54.235Z,14.10
2017-09-15T18:35:24.229Z,14.10
2017-09-15T18:37:54.696Z,14.10
2017-09-15T18:40:24.642Z,14.00
2017-09-15T18:42:54.122Z,14.10
2017-09-15T18:45:23.787Z,14.00
2017-09-15T18:47:54.292Z,14.10
2017-09-15T18:50:23.979Z,14.10
2017-09-15T18:52:54.558Z,14.10
2017-09-15T18:55:24.214Z,14.10
2017-09-15T18:57:53.899Z,14.00
2017-09-15T19:00:23.567Z,14.10
2017-09-15T19:02:53.596Z,14.10
2017-09-15T19:05:23.246Z,14.00
2017-09-15T19:07:52.940Z,14.00
2017-09-15T19:10:23.401Z,14.00
2017-09-15T19:12:53.610Z,13.90
2017-09-15T19:15:23.273Z,13.90
2017-09-15T19:17:52.964Z,13.80
2017-09-15T19:20:22.630Z,13.80
2017-09-15T19:22:52.308Z,13.70
2017-09-15T19:25:22.014Z,13.60
2017-09-15T19:27:51.801Z,13.60
2017-09-15T19:30:21.470Z,13.60
2017-09-15T19:32:51.457Z,13.60
2017-09-15T19:35:21.121Z,13.50
2017-09-15T19:37:50.806Z,13.50
2017-09-15T19:40:20.280Z,13.40
2017-09-15T19:42:49.949Z,13.30
2017-09-15T19:45:20.397Z,13.30
2017-09-15T19:47:50.087Z,13.20
2017-09-15T19:50:19.759Z,13.20
2017-09-15T19:52:49.457Z,13.10
2017-09-15T19:55:19.906Z,13.10
2017-09-15T19:57:49.588Z,13.10
2017-09-15T20:00:20.034Z,13.00
2017-09-15T20:02:49.533Z,13.00
2017-09-15T20:05:19.964Z,12.90
2017-09-15T20:07:50.455Z,12.80
2017-09-15T20:10:20.001Z,12.80
2017-09-15T20:12:50.458Z,12.70
2017-09-15T20:15:20.132Z,12.70
2017-09-15T20:17:50.371Z,12.60
2017-09-15T20:20:20.058Z,12.60
2017-09-15T20:22:50.513Z,12.60
2017-09-15T20:25:20.203Z,12.50
2017-09-15T20:27:50.666Z,12.60
2017-09-15T20:30:20.334Z,12.60
2017-09-15T20:32:50.977Z,12.50
2017-09-15T20:35:21.524Z,12.30
2017-09-15T20:37:51.254Z,12.30
2017-09-15T20:40:20.907Z,12.30
2017-09-15T20:42:51.362Z,12.30
2017-09-15T20:45:21.037Z,12.30
2017-09-15T20:47:50.718Z,12.30
2017-09-15T20:50:20.353Z,12.30
2017-09-15T20:52:49.843Z,12.30
2017-09-15T20:55:20.224Z,12.30
2017-09-15T20:57:49.915Z,12.20
2017-09-15T21:00:20.363Z,12.10
2017-09-15T21:02:50.073Z,12.10
2017-09-15T21:05:19.725Z,12.10
2017-09-15T21:07:49.701Z,12.10
2017-09-15T21:10:19.385Z,12.00
2017-09-15T21:12:49.827Z,11.90
2017-09-15T21:15:20.268Z,11.80
2017-09-15T21:17:49.951Z,11.80
2017-09-15T21:20:20.406Z,11.90
2017-09-15T21:22:50.080Z,11.90
2017-09-15T21:25:19.589Z,11.90
2017-09-15T21:27:49.849Z,11.90
2017-09-15T21:30:19.528Z,11.80
2017-09-15T21:32:50.266Z,11.90
2017-09-15T21:35:20.714Z,11.90
2017-09-15T21:37:50.377Z,11.90
2017-09-15T21:40:20.083Z,11.90
2017-09-15T21:42:49.751Z,11.90
2017-09-15T21:45:19.244Z,11.90
2017-09-15T21:47:48.926Z,11.80
2017-09-15T21:50:18.385Z,11.80
2017-09-15T21:52:48.039Z,11.70
2017-09-15T21:55:17.724Z,11.70
2017-09-15T21:57:47.386Z,11.70
2017-09-15T22:00:17.070Z,11.70
2017-09-15T22:02:47.355Z,11.70
2017-09-15T22:05:17.075Z,11.70
2017-09-15T22:07:46.757Z,11.60
2017-09-15T22:10:16.443Z,11.70
2017-09-15T22:12:46.132Z,11.70
2017-09-15T22:15:15.815Z,11.60
2017-09-15T22:17:45.475Z,11.50
2017-09-15T22:20:15.206Z,11.40
2017-09-15T22:22:44.857Z,11.40
2017-09-15T22:25:14.542Z,11.40
2017-09-15T22:27:44.250Z,11.30
2017-09-15T22:30:13.921Z,11.30
2017-09-15T22:32:43.398Z,11.30
2017-09-15T22:35:13.058Z,11.30
2017-09-15T22:37:42.713Z,11.30
2017-09-15T22:40:12.402Z,11.20
2017-09-15T22:42:41.889Z,11.20
2017-09-15T22:45:11.569Z,11.10
2017-09-15T22:47:42.007Z,11.00
2017-09-15T22:50:11.704Z,11.00
2017-09-15T22:52:42.132Z,11.00
2017-09-15T22:55:12.601Z,11.00
2017-09-15T22:57:42.123Z,11.00
2017-09-15T23:00:11.781Z,11.00
2017-09-15T23:02:41.261Z,11.00
2017-09-15T23:05:10.946Z,11.00
2017-09-15T23:07:40.643Z,11.00
2017-09-15T23:10:10.327Z,11.00
2017-09-15T23:12:39.808Z,11.00
2017-09-15T23:15:10.258Z,11.00
2017-09-15T23:17:39.749Z,11.00
2017-09-15T23:20:10.185Z,10.90
2017-09-15T23:22:39.638Z,10.90
2017-09-15T23:25:09.331Z,11.00
2017-09-15T23:27:39.039Z,10.90
2017-09-15T23:30:08.723Z,10.90
2017-09-15T23:32:38.387Z,10.90
2017-09-15T23:35:08.064Z,10.80
2017-09-15T23:37:37.755Z,10.90
2017-09-15T23:40:07.443Z,10.90
2017-09-15T23:42:37.870Z,10.80
2017-09-15T23:45:08.318Z,10.80
2017-09-15T23:47:37.985Z,10.80
2017-09-15T23:50:07.683Z,10.70
2017-09-15T23:52:37.330Z,10.70
2017-09-15T23:55:07.796Z,10.70
2017-09-15T23:57:37.505Z,10.70
